Time;durP1;ratioP1;P1;durP2;ratioP2;P2;SDS_P1;SDS_P2;PMS_P1;PMS_P2;Temp;Humidity;BMP_temperature;BMP_pressure;BME280_temperature;BME280_humidity;BME280_pressure;Samples;Min_cycle;Max_cycle;Signal;HPM_P1;HPM_P2
2023/03/26 00:01:45;;;;;;;7.85;5.72;;;14.30;91.00;;;;;;5002985;28;20037;-70
2023/03/26 00:04:18;;;;;;;16.17;9.18;;;14.40;91.40;;;;;;5014555;28;20050;-69
2023/03/26 00:06:47;;;;;;;23.52;13.40;;;14.70;92.40;;;;;;5014581;28;20108;-71
2023/03/26 00:09:16;;;;;;;9.38;5.82;;;14.70;92.20;;;;;;4998214;28;20050;-70
2023/03/26 00:11:45;;;;;;;7.35;5.15;;;14.80;91.60;;;;;;5013232;28;20472;-68
2023/03/26 00:14:12;;;;;;;7.63;5.22;;;14.70;91.80;;;;;;5000290;28;20038;-69
2023/03/26 00:16:43;;;;;;;8.05;5.40;;;14.60;92.50;;;;;;5016176;28;20116;-70
2023/03/26 00:19:11;;;;;;;7.10;5.10;;;14.60;92.50;;;;;;5014498;28;20096;-69
2023/03/26 00:21:40;;;;;;;6.00;4.70;;;14.60;92.50;;;;;;5010840;28;20394;-67
2023/03/26 00:24:13;;;;;;;6.65;4.70;;;14.60;92.50;;;;;;5010561;28;20042;-73
2023/03/26 00:26:42;;;;;;;7.03;4.90;;;14.70;92.50;;;;;;5004525;28;20043;-71
2023/03/26 00:29:26;;;;;;;8.15;4.65;;;14.60;92.40;;;;;;4999289;28;20655;-72
2023/03/26 00:31:54;;;;;;;8.88;4.80;;;14.60;92.50;;;;;;4996239;28;20434;-74
2023/03/26 00:34:21;;;;;;;6.82;4.57;;;14.50;92.90;;;;;;4990668;28;20512;-72
2023/03/26 00:36:53;;;;;;;8.63;5.00;;;14.40;93.20;;;;;;5007961;28;20092;-69
2023/03/26 00:39:22;;;;;;;8.27;4.60;;;14.30;93.70;;;;;;5005702;28;20387;-71
2023/03/26 00:41:52;;;;;;;9.73;5.22;;;14.30;93.80;;;;;;5003972;28;20109;-72
2023/03/26 00:44:39;;;;;;;7.97;4.43;;;14.20;94.00;;;;;;4997812;28;20049;-73
2023/03/26 00:47:06;;;;;;;5.68;4.03;;;14.20;94.20;;;;;;5008769;28;20056;-69
2023/03/26 00:49:34;;;;;;;7.30;4.65;;;14.30;94.00;;;;;;5009672;28;20393;-69
2023/03/26 00:52:02;;;;;;;6.18;4.63;;;14.30;93.90;;;;;;5006631;28;20441;-72
2023/03/26 00:54:29;;;;;;;7.18;5.22;;;14.30;94.00;;;;;;4985965;28;20124;-68
2023/03/26 00:56:56;;;;;;;8.95;4.93;;;14.20;94.50;;;;;;5004444;28;20450;-72
2023/03/26 00:59:24;;;;;;;7.60;4.40;;;14.10;94.60;;;;;;4996594;28;20038;-70
2023/03/26 01:01:53;;;;;;;7.20;4.38;;;14.30;94.40;;;;;;4995367;28;20399;-68
2023/03/26 01:04:26;;;;;;;6.80;4.72;;;14.30;94.30;;;;;;4997893;28;20050;-70
2023/03/26 01:06:57;;;;;;;7.65;5.00;;;14.40;94.00;;;;;;4988302;28;20478;-68
2023/03/26 01:09:41;;;;;;;6.00;4.28;;;14.20;94.20;;;;;;4999435;28;20069;-73
2023/03/26 01:12:17;;;;;;;6.53;5.00;;;14.20;94.20;;;;;;4980017;28;20042;-68
2023/03/26 01:14:46;;;;;;;6.15;4.35;;;14.20;94.40;;;;;;5004726;28;20042;-66
2023/03/26 01:17:17;;;;;;;6.32;5.05;;;14.20;94.40;;;;;;5005081;28;20046;-68
2023/03/26 01:19:44;;;;;;;7.55;4.50;;;14.10;94.40;;;;;;4987461;28;20042;-67
2023/03/26 01:22:22;;;;;;;5.88;4.43;;;14.30;93.90;;;;;;5000590;28;20042;-67
2023/03/26 01:24:55;;;;;;;6.05;4.60;;;14.30;93.90;;;;;;5005546;28;20038;-73
2023/03/26 01:27:32;;;;;;;6.82;4.63;;;14.20;94.40;;;;;;4979946;28;20123;-68
2023/03/26 01:30:23;;;;;;;6.72;4.63;;;14.10;94.60;;;;;;4996815;28;20040;-70
2023/03/26 01:33:04;;;;;;;8.20;4.85;;;14.10;94.80;;;;;;5004807;28;20034;-71
2023/03/26 01:35:34;;;;;;;;;;;14.20;94.40;;;;;;5001224;28;20041;-66
2023/03/26 01:38:52;;;;;;;7.60;4.80;;;14.10;94.30;;;;;;4989731;28;19968;-69
2023/03/26 01:41:32;;;;;;;7.75;4.70;;;14.10;94.40;;;;;;4979650;28;20404;-66
2023/03/26 01:44:10;;;;;;;6.95;4.78;;;14.10;94.00;;;;;;4998191;28;20054;-71
2023/03/26 01:46:57;;;;;;;6.95;5.10;;;14.00;94.60;;;;;;5000288;28;20071;-71
2023/03/26 01:49:41;;;;;;;7.97;5.00;;;13.90;94.90;;;;;;4979530;28;20424;-71
2023/03/26 01:52:23;;;;;;;9.85;5.80;;;13.80;95.70;;;;;;5002709;28;20100;-71
2023/03/26 01:54:55;;;;;;;9.60;5.75;;;13.60;96.80;;;;;;4982772;28;20046;-67
2023/03/26 01:57:40;;;;;;;7.57;5.70;;;13.50;97.30;;;;;;4975245;28;20037;-73
2023/03/26 02:00:28;;;;;;;8.02;5.45;;;13.40;97.60;;;;;;5012564;28;20046;-73
2023/03/26 02:03:04;;;;;;;9.73;5.68;;;13.60;96.50;;;;;;5011967;28;20733;-70
2023/03/26 02:05:42;;;;;;;12.75;6.15;;;13.80;95.50;;;;;;4990556;28;20050;-72
2023/03/26 02:08:19;;;;;;;7.90;5.97;;;13.80;96.10;;;;;;4987943;28;20049;-68
2023/03/26 02:10:51;;;;;;;10.95;6.30;;;13.70;96.70;;;;;;4994778;28;20489;-70
2023/03/26 02:13:19;;;;;;;9.88;6.32;;;13.60;97.60;;;;;;5009653;28;20402;-71
2023/03/26 02:15:59;;;;;;;10.43;7.00;;;13.20;98.10;;;;;;4992655;28;20038;-72
2023/03/26 02:18:37;;;;;;;11.13;7.18;;;13.20;98.70;;;;;;4995734;28;20096;-73
2023/03/26 02:21:11;;;;;;;12.45;8.40;;;13.10;98.70;;;;;;5004730;28;20046;-69
2023/03/26 02:23:45;;;;;;;10.57;7.20;;;13.00;99.40;;;;;;4994763;28;20076;-72
2023/03/26 02:26:15;;;;;;;13.27;7.45;;;12.90;99.70;;;;;;4983940;28;20104;-70
2023/03/26 02:28:42;;;;;;;9.80;6.88;;;13.00;99.90;;;;;;4989397;28;20385;-68
2023/03/26 02:31:12;;;;;;;10.13;6.65;;;13.00;99.90;;;;;;4997397;28;20038;-71
2023/03/26 02:33:40;;;;;;;8.23;5.18;;;13.00;99.40;;;;;;4993999;28;20038;-72
2023/03/26 02:36:07;;;;;;;8.55;4.53;;;13.30;97.50;;;;;;4997829;28;20042;-68
2023/03/26 02:38:35;;;;;;;5.85;3.95;;;13.50;96.30;;;;;;4991443;28;20050;-72
2023/03/26 02:41:03;;;;;;;6.47;3.53;;;13.90;94.40;;;;;;4974002;28;20519;-67
2023/03/26 02:43:30;;;;;;;4.35;3.25;;;14.10;93.20;;;;;;4992537;28;20046;-70
2023/03/26 02:45:58;;;;;;;4.78;3.20;;;14.10;92.10;;;;;;5005601;28;20049;-71
2023/03/26 02:48:25;;;;;;;5.55;2.78;;;14.30;90.60;;;;;;4984833;28;20457;-70
2023/03/26 02:50:53;;;;;;;4.97;2.80;;;14.30;90.00;;;;;;4982378;28;20042;-73
2023/03/26 02:53:22;;;;;;;4.70;2.60;;;14.20;89.90;;;;;;4998415;28;20042;-74
2023/03/26 02:55:50;;;;;;;5.18;2.70;;;14.10;88.60;;;;;;4994191;28;20045;-72
2023/03/26 02:58:19;;;;;;;2.90;2.55;;;14.10;88.00;;;;;;4978379;28;20042;-71
2023/03/26 03:00:46;;;;;;;3.42;2.72;;;14.10;87.70;;;;;;5006535;28;20413;-69
2023/03/26 03:03:15;;;;;;;4.20;2.60;;;14.10;87.50;;;;;;4966679;28;20047;-70
2023/03/26 03:05:43;;;;;;;3.07;2.50;;;14.10;86.10;;;;;;4973382;28;20457;-72
2023/03/26 03:08:10;;;;;;;4.68;2.70;;;14.10;86.50;;;;;;4991843;28;20050;-70
2023/03/26 03:10:38;;;;;;;5.82;2.63;;;14.10;86.20;;;;;;4991795;28;20486;-74
2023/03/26 03:13:06;;;;;;;6.40;2.60;;;14.10;86.40;;;;;;4990626;28;20097;-70
2023/03/26 03:15:34;;;;;;;3.10;2.47;;;14.10;86.40;;;;;;5003559;28;20441;-72
2023/03/26 03:18:01;;;;;;;3.70;2.70;;;14.10;86.60;;;;;;4991517;28;20036;-71
2023/03/26 03:20:29;;;;;;;3.38;2.53;;;14.10;87.50;;;;;;4974774;28;20054;-69
2023/03/26 03:22:56;;;;;;;3.97;2.80;;;14.00;88.30;;;;;;5002552;28;20062;-71
2023/03/26 03:25:24;;;;;;;4.00;2.90;;;14.00;88.80;;;;;;5011371;28;20375;-67
2023/03/26 03:27:52;;;;;;;4.00;2.85;;;13.90;88.60;;;;;;4978361;28;20039;-69
2023/03/26 03:30:20;;;;;;;3.72;2.72;;;14.00;88.00;;;;;;5001094;28;20050;-69
2023/03/26 03:32:47;;;;;;;3.55;2.80;;;13.90;88.60;;;;;;4990485;28;20042;-72
2023/03/26 03:35:15;;;;;;;4.50;3.28;;;14.00;88.40;;;;;;4990929;28;20605;-72
2023/03/26 03:38:00;;;;;;;7.47;5.00;;;13.90;90.40;;;;;;4999122;28;20045;-69
2023/03/26 03:40:28;;;;;;;8.00;4.80;;;13.30;93.40;;;;;;4998115;28;20145;-72
2023/03/26 03:42:55;;;;;;;10.73;5.32;;;12.80;95.60;;;;;;4993385;28;20141;-68
2023/03/26 03:45:23;;;;;;;6.07;4.60;;;12.60;96.80;;;;;;4992113;28;20042;-69
2023/03/26 03:47:50;;;;;;;8.88;5.40;;;12.80;96.70;;;;;;4991793;28;20491;-72
2023/03/26 03:50:18;;;;;;;7.50;5.50;;;12.80;97.10;;;;;;4992128;28;20043;-70
2023/03/26 03:52:45;;;;;;;8.23;4.88;;;12.80;97.30;;;;;;4991692;28;20065;-68
2023/03/26 03:55:12;;;;;;;7.20;4.80;;;12.90;97.00;;;;;;4989774;28;20428;-72
2023/03/26 03:57:40;;;;;;;6.82;4.90;;;13.00;96.70;;;;;;5004882;28;20038;-72
2023/03/26 04:00:08;;;;;;;7.43;4.50;;;12.50;97.90;;;;;;5003799;28;20042;-74
2023/03/26 04:02:37;;;;;;;7.55;4.38;;;12.70;97.20;;;;;;5003984;28;20402;-69
2023/03/26 04:05:05;;;;;;;6.15;4.47;;;13.00;96.60;;;;;;4986999;28;20064;-69
2023/03/26 04:07:32;;;;;;;6.25;4.10;;;13.00;96.60;;;;;;5003307;28;20056;-70
2023/03/26 04:10:01;;;;;;;6.28;4.10;;;12.90;97.00;;;;;;4974104;28;20410;-74
2023/03/26 04:12:30;;;;;;;8.00;4.00;;;13.00;96.30;;;;;;4991055;28;20406;-71
2023/03/26 04:14:58;;;;;;;5.28;3.70;;;13.10;95.80;;;;;;5006156;28;20050;-73
2023/03/26 04:17:44;;;;;;;5.00;3.53;;;13.10;95.00;;;;;;5010408;28;20029;-73
2023/03/26 04:20:14;;;;;;;3.33;2.88;;;13.20;94.00;;;;;;5005202;28;20050;-72
2023/03/26 04:22:42;;;;;;;;;;;13.20;93.50;;;;;;4974404;28;20077;-72
2023/03/26 04:25:11;;;;;;;3.80;2.80;;;13.20;93.20;;;;;;4991467;28;19945;-71
2023/03/26 04:27:40;;;;;;;3.85;2.92;;;13.20;92.90;;;;;;4991182;28;20046;-68
2023/03/26 04:30:15;;;;;;;3.67;2.63;;;13.20;92.90;;;;;;4973736;28;20070;-72
2023/03/26 04:33:02;;;;;;;3.78;2.90;;;13.20;92.80;;;;;;4987655;28;20041;-72
2023/03/26 04:35:35;;;;;;;3.22;2.92;;;13.20;92.60;;;;;;4991037;28;20046;-69
2023/03/26 04:38:06;;;;;;;3.38;2.78;;;13.10;92.80;;;;;;4989966;28;20048;-73
2023/03/26 04:40:34;;;;;;;4.75;2.80;;;13.10;92.80;;;;;;4987865;28;20042;-74
2023/03/26 04:43:01;;;;;;;4.40;2.95;;;13.20;92.90;;;;;;4989377;28;20042;-71
2023/03/26 04:45:30;;;;;;;4.20;2.80;;;13.00;93.20;;;;;;4988424;28;20045;-69
2023/03/26 04:47:57;;;;;;;4.95;2.90;;;13.00;93.50;;;;;;5009984;28;20052;-73
2023/03/26 04:50:25;;;;;;;4.60;2.90;;;12.90;93.20;;;;;;4996840;28;20034;-73
2023/03/26 04:52:55;;;;;;;3.90;3.03;;;12.90;93.20;;;;;;5009841;28;20056;-71
2023/03/26 04:55:36;;;;;;;3.88;3.08;;;13.00;93.10;;;;;;4975614;28;20042;-71
2023/03/26 04:58:04;;;;;;;6.53;3.80;;;13.10;93.00;;;;;;4991044;28;20510;-70
2023/03/26 05:00:31;;;;;;;6.00;3.80;;;13.20;93.70;;;;;;4990857;28;20130;-73
2023/03/26 05:03:00;;;;;;;8.07;4.35;;;13.00;95.80;;;;;;4991206;28;20582;-69
2023/03/26 05:05:28;;;;;;;9.50;4.00;;;13.00;95.70;;;;;;5006143;28;20116;-72
2023/03/26 05:07:55;;;;;;;5.53;3.60;;;13.00;95.80;;;;;;4994193;28;20121;-71
2023/03/26 05:10:23;;;;;;;5.95;3.45;;;13.10;96.00;;;;;;4994610;28;20486;-70
2023/03/26 05:12:50;;;;;;;6.90;3.35;;;13.10;95.40;;;;;;4989573;28;20521;-70
2023/03/26 05:15:18;;;;;;;7.25;3.78;;;13.00;95.40;;;;;;4994199;28;20053;-72
2023/03/26 05:17:45;;;;;;;5.20;3.72;;;13.00;95.90;;;;;;4989533;28;20041;-71
2023/03/26 05:20:30;;;;;;;4.45;3.22;;;13.00;96.10;;;;;;4994384;28;20033;-74
2023/03/26 05:22:58;;;;;;;6.00;3.63;;;13.00;96.20;;;;;;4979047;28;20045;-73
2023/03/26 05:25:25;;;;;;;6.22;3.63;;;13.00;96.50;;;;;;5002858;28;20594;-74
2023/03/26 05:27:53;;;;;;;4.78;3.30;;;13.10;95.00;;;;;;4994124;28;20057;-72
2023/03/26 05:30:21;;;;;;;4.85;3.10;;;13.00;95.10;;;;;;4993051;28;20042;-73
2023/03/26 05:32:48;;;;;;;6.30;3.33;;;13.00;95.40;;;;;;5006346;28;20405;-70
2023/03/26 05:35:17;;;;;;;4.82;3.30;;;13.10;95.20;;;;;;4995357;28;20046;-73
2023/03/26 05:37:45;;;;;;;6.00;3.35;;;13.20;95.10;;;;;;4982790;28;20137;-71
2023/03/26 05:40:15;;;;;;;6.00;3.40;;;13.30;95.00;;;;;;5006923;28;20050;-72
2023/03/26 05:42:44;;;;;;;6.13;3.20;;;13.30;95.00;;;;;;5007923;28;20065;-70
2023/03/26 05:45:13;;;;;;;4.63;2.85;;;13.40;94.40;;;;;;4980175;28;20046;-72
2023/03/26 05:47:40;;;;;;;4.40;3.22;;;13.20;94.00;;;;;;4995148;28;20048;-73
2023/03/26 05:50:09;;;;;;;6.07;3.00;;;13.00;94.40;;;;;;4982249;28;20085;-71
2023/03/26 05:52:53;;;;;;;3.15;2.70;;;12.70;94.30;;;;;;4995488;28;20034;-73
2023/03/26 05:55:39;;;;;;;3.83;2.60;;;12.80;94.80;;;;;;4991889;28;20042;-71
2023/03/26 05:58:06;;;;;;;3.30;2.70;;;13.00;94.50;;;;;;5002547;28;20077;-70
2023/03/26 06:00:37;;;;;;;6.85;2.90;;;13.20;93.90;;;;;;5011216;28;20054;-73
2023/03/26 06:03:05;;;;;;;4.40;2.90;;;13.30;94.20;;;;;;4995429;28;20120;-70
2023/03/26 06:05:36;;;;;;;5.22;2.83;;;12.90;94.70;;;;;;5012029;28;20041;-72
2023/03/26 06:08:03;;;;;;;;;;;13.00;95.10;;;;;;4995200;28;20148;-70
2023/03/26 06:10:31;;;;;;;6.90;3.50;;;13.00;95.30;;;;;;5009834;28;19922;-71
2023/03/26 06:12:58;;;;;;;5.68;3.58;;;13.10;95.70;;;;;;5011468;28;20042;-70
2023/03/26 06:15:25;;;;;;;5.68;3.58;;;13.10;95.90;;;;;;4990866;28;20049;-70
2023/03/26 06:17:52;;;;;;;6.55;3.80;;;13.40;95.60;;;;;;4978939;28;20054;-70
2023/03/26 06:20:20;;;;;;;5.63;3.83;;;13.50;95.60;;;;;;4978405;28;20048;-70
2023/03/26 06:22:47;;;;;;;7.40;4.28;;;13.50;96.30;;;;;;5008603;28;20124;-71
2023/03/26 06:25:15;;;;;;;6.38;4.15;;;13.60;96.40;;;;;;4989183;28;20378;-72
2023/03/26 06:27:42;;;;;;;9.82;4.75;;;13.70;96.30;;;;;;4972269;28;20038;-69
2023/03/26 06:30:10;;;;;;;8.73;4.20;;;13.80;96.10;;;;;;5006408;28;20515;-70
2023/03/26 06:32:37;;;;;;;6.57;4.30;;;13.70;96.10;;;;;;5006712;28;20405;-71
2023/03/26 06:35:23;;;;;;;7.13;3.78;;;13.50;96.10;;;;;;4999234;28;20033;-72
2023/03/26 06:37:50;;;;;;;6.85;4.20;;;13.50;96.30;;;;;;5002254;28;20425;-70
2023/03/26 06:40:18;;;;;;;6.00;4.47;;;13.50;96.20;;;;;;4991163;28;20092;-67
2023/03/26 06:42:45;;;;;;;6.38;4.25;;;13.60;96.10;;;;;;5006989;28;20061;-68
2023/03/26 06:45:33;;;;;;;7.45;4.65;;;13.80;95.70;;;;;;5001485;28;20038;-69
2023/03/26 06:48:00;;;;;;;7.07;4.30;;;13.80;95.90;;;;;;5004482;28;20054;-68
2023/03/26 06:50:30;;;;;;;6.03;4.10;;;13.80;95.50;;;;;;5005080;28;20080;-73
2023/03/26 06:52:58;;;;;;;6.60;4.57;;;13.90;95.60;;;;;;4978094;28;20551;-70
2023/03/26 06:55:26;;;;;;;10.18;4.50;;;13.90;95.60;;;;;;4996957;28;20046;-73
2023/03/26 06:57:55;;;;;;;6.40;4.05;;;14.00;95.90;;;;;;4992713;28;20371;-72
2023/03/26 07:00:22;;;;;;;6.53;3.92;;;13.80;95.20;;;;;;4992689;28;20042;-75
2023/03/26 07:03:08;;;;;;;6.60;3.90;;;13.90;95.10;;;;;;4992963;28;20069;-73
2023/03/26 07:05:36;;;;;;;7.15;4.00;;;13.70;94.90;;;;;;4959981;28;20077;-69
2023/03/26 07:08:04;;;;;;;5.47;3.50;;;13.80;94.80;;;;;;4992377;28;20397;-68
2023/03/26 07:10:31;;;;;;;4.82;3.30;;;14.00;94.30;;;;;;4992812;28;20445;-74
2023/03/26 07:12:58;;;;;;;5.32;3.40;;;14.00;92.90;;;;;;4994581;28;20555;-68
2023/03/26 07:15:27;;;;;;;6.15;3.13;;;14.10;93.40;;;;;;5009167;28;20045;-71
2023/03/26 07:17:55;;;;;;;4.85;3.20;;;14.20;93.60;;;;;;4993967;28;20098;-70
2023/03/26 07:20:23;;;;;;;4.20;3.08;;;14.20;92.80;;;;;;4996711;28;20073;-71
2023/03/26 07:22:50;;;;;;;4.25;3.33;;;14.20;92.60;;;;;;5011120;28;20061;-71
2023/03/26 07:25:18;;;;;;;6.25;3.40;;;14.40;92.20;;;;;;5004279;28;20405;-69
2023/03/26 07:27:55;;;;;;;4.80;3.13;;;14.40;91.80;;;;;;5005529;28;20046;-73
2023/03/26 07:30:25;;;;;;;4.75;3.20;;;14.50;91.40;;;;;;5001736;28;20054;-75
2023/03/26 07:33:30;;;;;;;6.32;3.25;;;14.50;91.90;;;;;;4997002;28;20103;-70
2023/03/26 07:36:36;;;;;;;5.72;2.85;;;14.60;92.30;;;;;;5002941;28;20390;-70
2023/03/26 07:39:17;;;;;;;6.60;3.70;;;14.60;92.50;;;;;;4995278;28;20723;-71
2023/03/26 07:42:08;;;;;;;4.38;2.80;;;14.70;92.60;;;;;;4982172;28;20053;-71
2023/03/26 07:44:47;;;;;;;5.22;3.17;;;14.80;92.10;;;;;;4989834;28;20050;-72
2023/03/26 07:47:26;;;;;;;6.78;3.25;;;14.80;91.70;;;;;;5007929;28;20393;-70
2023/03/26 07:49:54;;;;;;;5.10;2.80;;;14.70;91.80;;;;;;4999092;28;20046;-71
2023/03/26 07:52:22;;;;;;;5.05;2.90;;;14.70;90.90;;;;;;5004193;28;20077;-75
2023/03/26 07:54:50;;;;;;;4.88;2.80;;;14.70;90.60;;;;;;4991674;28;20042;-74
2023/03/26 07:57:44;;;;;;;4.68;2.67;;;14.80;90.50;;;;;;5008792;28;20100;-68
2023/03/26 08:00:19;;;;;;;7.75;3.08;;;14.90;90.30;;;;;;5000757;28;20045;-72
2023/03/26 08:02:46;;;;;;;4.38;2.85;;;14.80;90.20;;;;;;5000014;28;20407;-71
2023/03/26 08:05:27;;;;;;;3.95;2.42;;;14.80;90.20;;;;;;4993647;28;20050;-74
2023/03/26 08:08:12;;;;;;;5.00;2.70;;;14.60;89.80;;;;;;5003153;28;20046;-70
2023/03/26 08:10:51;;;;;;;4.20;3.10;;;14.70;90.10;;;;;;4999302;28;20440;-73
2023/03/26 08:13:19;;;;;;;5.10;2.63;;;14.80;90.10;;;;;;5009040;28;20497;-72
2023/03/26 08:16:38;;;;;;;3.70;2.72;;;15.10;90.20;;;;;;4989858;28;20161;-70
2023/03/26 08:19:34;;;;;;;3.83;2.58;;;15.20;88.00;;;;;;4956932;28;20056;-69
2023/03/26 08:22:12;;;;;;;3.65;2.50;;;15.30;85.00;;;;;;4993163;28;20042;-73
2023/03/26 08:24:56;;;;;;;3.53;2.40;;;15.30;83.90;;;;;;4989956;28;20109;-71
2023/03/26 08:28:03;;;;;;;4.03;2.40;;;15.40;86.50;;;;;;5003758;28;20061;-70
2023/03/26 08:30:30;;;;;;;3.05;2.33;;;15.30;86.20;;;;;;4961932;28;20082;-70
2023/03/26 08:33:13;;;;;;;3.55;2.40;;;15.50;85.30;;;;;;4995385;28;20042;-71
2023/03/26 08:35:41;;;;;;;7.47;4.70;;;15.60;84.40;;;;;;5009233;28;20056;-73
2023/03/26 08:38:10;;;;;;;7.75;3.55;;;15.80;85.30;;;;;;5009925;28;20419;-70
2023/03/26 08:40:57;;;;;;;27.38;16.50;;;15.90;83.90;;;;;;5003815;28;20486;-78
2023/03/26 08:43:57;;;;;;;10.55;6.40;;;16.10;83.80;;;;;;5001471;28;20038;-71
2023/03/26 08:46:54;;;;;;;57.28;39.30;;;16.20;80.70;;;;;;5014071;28;20061;-72
2023/03/26 08:49:43;;;;;;;35.58;24.33;;;16.30;79.90;;;;;;5004146;28;20050;-71
2023/03/26 08:52:47;;;;;;;17.20;11.23;;;16.50;80.70;;;;;;5009163;28;20125;-72
2023/03/26 08:56:20;;;;;;;6.70;4.38;;;16.70;80.30;;;;;;5004857;28;20100;-69
2023/03/26 08:59:49;;;;;;;5.60;4.05;;;16.90;76.90;;;;;;5030547;23;20436;-70
2023/03/26 09:02:32;;;;;;;;;;;16.80;77.20;;;;;;4988554;28;20042;-69
2023/03/26 09:05:37;;;;;;;5.10;3.22;;;16.90;76.70;;;;;;5009444;28;19972;-71
2023/03/26 09:08:26;;;;;;;3.53;2.45;;;16.80;76.10;;;;;;5018121;28;20026;-71
2023/03/26 09:11:25;;;;;;;3.90;2.33;;;17.10;76.50;;;;;;5030136;28;20538;-70
2023/03/26 09:14:37;;;;;;;5.95;2.90;;;17.20;75.30;;;;;;5008009;28;20060;-72
2023/03/26 09:17:40;;;;;;;4.00;2.45;;;17.50;74.10;;;;;;4930252;29;20047;-72
2023/03/26 09:20:26;;;;;;;3.63;2.05;;;17.30;73.30;;;;;;4938833;29;20070;-71
2023/03/26 09:23:36;;;;;;;5.70;2.67;;;17.00;73.10;;;;;;4986209;28;20045;-72
2023/03/26 09:26:22;;;;;;;5.32;3.10;;;17.10;72.80;;;;;;5022851;28;20064;-71
2023/03/26 09:29:13;;;;;;;3.65;2.17;;;17.50;72.80;;;;;;5036739;28;20042;-69
2023/03/26 09:32:02;;;;;;;3.25;2.05;;;17.50;71.00;;;;;;5008727;28;20052;-71
2023/03/26 09:34:49;;;;;;;5.82;2.95;;;17.60;69.80;;;;;;5030078;28;20447;-76
2023/03/26 09:37:27;;;;;;;4.07;2.50;;;17.80;70.00;;;;;;5038892;28;20497;-77
2023/03/26 09:40:13;;;;;;;6.85;2.72;;;17.90;68.80;;;;;;5011007;28;20037;-70
2023/03/26 09:42:45;;;;;;;9.32;4.68;;;18.00;68.30;;;;;;5028077;28;20124;-71
2023/03/26 09:45:28;;;;;;;5.90;3.40;;;18.20;69.70;;;;;;5039011;28;20058;-71
2023/03/26 09:48:13;;;;;;;5.15;3.05;;;18.20;68.50;;;;;;5032562;28;20489;-70
2023/03/26 09:50:43;;;;;;;3.42;2.10;;;18.30;67.30;;;;;;5029598;28;20042;-73
2023/03/26 09:53:19;;;;;;;8.05;3.78;;;18.10;65.70;;;;;;5027190;28;20489;-71
2023/03/26 09:56:19;;;;;;;41.63;23.15;;;18.50;68.20;;;;;;5034860;28;20052;-72
2023/03/26 09:59:13;;;;;;;29.50;20.17;;;19.00;69.10;;;;;;5029551;28;20493;-71
2023/03/26 10:02:01;;;;;;;167.82;100.72;;;19.40;66.70;;;;;;5029109;28;20389;-72
2023/03/26 10:05:03;;;;;;;196.43;121.78;;;19.20;66.50;;;;;;5025690;28;20044;-73
2023/03/26 10:08:00;;;;;;;13.05;11.00;;;19.20;64.50;;;;;;5023446;28;20473;-74
2023/03/26 10:10:37;;;;;;;15.48;8.60;;;19.00;63.90;;;;;;5026496;28;20043;-70
2023/03/26 10:13:07;;;;;;;13.88;7.65;;;19.40;67.40;;;;;;5025050;28;20044;-74
2023/03/26 10:16:07;;;;;;;4.75;2.78;;;19.70;64.90;;;;;;5007484;28;20045;-74
2023/03/26 10:18:58;;;;;;;8.50;3.15;;;19.40;61.30;;;;;;5015579;28;20045;-72
2023/03/26 10:21:35;;;;;;;5.63;2.65;;;19.40;62.00;;;;;;5027829;28;20087;-72
2023/03/26 10:24:28;;;;;;;4.30;2.00;;;19.50;62.00;;;;;;4995224;28;20056;-70
2023/03/26 10:27:01;;;;;;;4.05;1.90;;;19.40;60.30;;;;;;5028302;28;20041;-69
2023/03/26 10:29:50;;;;;;;3.53;2.00;;;19.40;59.90;;;;;;5009683;28;20035;-71
2023/03/26 10:32:52;;;;;;;3.08;1.65;;;19.50;60.40;;;;;;5008060;28;20049;-75
2023/03/26 10:35:21;;;;;;;4.90;2.00;;;19.80;59.10;;;;;;5010699;28;20033;-71
2023/03/26 10:38:12;;;;;;;3.65;2.00;;;20.00;58.60;;;;;;4994348;28;20133;-76
2023/03/26 10:41:05;;;;;;;3.17;1.70;;;20.00;58.50;;;;;;5016917;28;20051;-75
2023/03/26 10:44:20;;;;;;;3.40;1.77;;;20.10;58.00;;;;;;4994125;28;20464;-73
2023/03/26 10:46:54;;;;;;;13.82;8.68;;;20.30;59.00;;;;;;4965954;28;20041;-73
2023/03/26 10:49:54;;;;;;;15.60;9.43;;;20.00;57.40;;;;;;4993855;28;20068;-75
2023/03/26 10:52:54;;;;;;;7.25;3.78;;;20.00;59.10;;;;;;5022617;28;20044;-72
2023/03/26 10:55:44;;;;;;;3.78;2.42;;;20.30;59.00;;;;;;5007232;28;20046;-75
2023/03/26 10:58:26;;;;;;;3.58;2.10;;;20.10;57.50;;;;;;5026139;28;20065;-72
2023/03/26 11:01:03;;;;;;;5.05;1.70;;;20.20;59.80;;;;;;5025553;28;20037;-70
2023/03/26 11:03:54;;;;;;;9.48;4.28;;;20.30;59.50;;;;;;5025536;28;20048;-72
2023/03/26 11:06:56;;;;;;;9.85;5.80;;;20.20;58.30;;;;;;5020612;28;20065;-73
2023/03/26 11:09:34;;;;;;;5.60;2.30;;;20.40;59.20;;;;;;5028108;28;20064;-72
2023/03/26 11:12:24;;;;;;;2.47;1.63;;;20.80;59.40;;;;;;5010625;28;20048;-72
2023/03/26 11:15:16;;;;;;;4.25;2.00;;;20.80;57.10;;;;;;5009183;28;20056;-73
2023/03/26 11:18:20;;;;;;;3.22;1.85;;;20.60;57.80;;;;;;5007013;28;20050;-74
2023/03/26 11:21:23;;;;;;;11.15;4.13;;;20.80;56.50;;;;;;5008308;28;20454;-74
2023/03/26 11:23:51;;;;;;;16.17;11.40;;;20.80;55.40;;;;;;5006029;28;20049;-70
2023/03/26 11:27:06;;;;;;;12.77;9.60;;;21.10;55.50;;;;;;5027279;28;20048;-76
2023/03/26 11:30:00;;;;;;;7.45;4.00;;;21.20;54.60;;;;;;5005543;28;20050;-71
2023/03/26 11:32:53;;;;;;;43.28;30.52;;;21.10;54.50;;;;;;5033821;28;20129;-71
2023/03/26 11:35:34;;;;;;;20.33;14.27;;;21.60;55.40;;;;;;5006871;28;20037;-70
2023/03/26 11:38:36;;;;;;;10.95;7.38;;;21.90;53.00;;;;;;5008148;28;20183;-73
2023/03/26 11:41:30;;;;;;;44.80;29.52;;;21.70;53.20;;;;;;5010449;28;20045;-71
2023/03/26 11:44:15;;;;;;;30.52;16.17;;;22.30;53.00;;;;;;4991654;28;20052;-71
2023/03/26 11:46:47;;;;;;;13.27;5.43;;;22.70;57.30;;;;;;5023459;28;20477;-72
2023/03/26 11:49:18;;;;;;;10.73;4.70;;;23.10;53.00;;;;;;5009127;28;20060;-72
2023/03/26 11:51:47;;;;;;;20.00;12.55;;;23.00;51.00;;;;;;5022838;28;20489;-73
2023/03/26 11:54:16;;;;;;;10.32;6.50;;;22.70;47.00;;;;;;5020318;28;20132;-71
2023/03/26 11:57:03;;;;;;;16.80;10.50;;;22.50;48.40;;;;;;5027729;28;20042;-73
2023/03/26 11:59:42;;;;;;;11.35;6.88;;;22.90;49.40;;;;;;4990761;28;20520;-75
2023/03/26 12:02:37;;;;;;;11.05;3.90;;;23.40;49.30;;;;;;4989585;28;20041;-70
2023/03/26 12:05:11;;;;;;;16.75;6.93;;;23.90;50.00;;;;;;5004998;28;20455;-72
2023/03/26 12:07:53;;;;;;;7.70;2.60;;;24.60;53.40;;;;;;4987094;28;20457;-75
2023/03/26 12:10:24;;;;;;;5.75;2.35;;;24.60;48.90;;;;;;5008237;28;20041;-72
2023/03/26 12:13:25;;;;;;;7.45;2.40;;;25.20;47.30;;;;;;5009330;28;20046;-72
2023/03/26 12:15:58;;;;;;;8.50;4.38;;;27.90;44.50;;;;;;5009529;28;20038;-72
2023/03/26 12:18:27;;;;;;;4.90;2.38;;;30.10;41.00;;;;;;5010879;28;20447;-72
2023/03/26 12:21:12;;;;;;;17.85;2.83;;;30.80;40.20;;;;;;5011102;28;20503;-74
2023/03/26 12:24:03;;;;;;;48.20;9.35;;;30.40;38.90;;;;;;5011370;28;20587;-73
2023/03/26 12:26:38;;;;;;;7.18;3.85;;;31.10;38.20;;;;;;5010967;28;20379;-71
2023/03/26 12:29:11;;;;;;;7.47;3.08;;;31.20;38.00;;;;;;5010253;28;20046;-70
2023/03/26 12:32:13;;;;;;;40.03;33.55;;;31.10;36.10;;;;;;4994691;28;20411;-71
2023/03/26 12:34:41;;;;;;;38.67;34.45;;;31.50;35.90;;;;;;4993260;28;20073;-71
2023/03/26 12:37:42;;;;;;;8.02;4.47;;;30.60;35.00;;;;;;5010807;28;20080;-76
2023/03/26 12:40:24;;;;;;;8.63;2.70;;;30.50;36.20;;;;;;4999887;28;20066;-73
2023/03/26 12:42:55;;;;;;;2.72;1.00;;;30.80;37.70;;;;;;4994492;28;20042;-74
2023/03/26 12:45:42;;;;;;;3.28;1.20;;;30.40;38.90;;;;;;5010951;28;20045;-73
2023/03/26 12:48:15;;;;;;;2.45;1.00;;;30.50;36.00;;;;;;5012050;28;20033;-74
2023/03/26 12:51:01;;;;;;;5.68;3.05;;;30.60;35.40;;;;;;4977164;28;20572;-76
2023/03/26 12:53:49;;;;;;;4.22;1.40;;;30.90;39.90;;;;;;4984018;28;20402;-75
2023/03/26 12:56:34;;;;;;;4.18;1.40;;;31.80;35.50;;;;;;5011807;28;20057;-74
2023/03/26 12:59:31;;;;;;;2.50;0.90;;;31.70;36.20;;;;;;5000282;28;20385;-74
2023/03/26 13:02:36;;;;;;;1.52;0.80;;;31.60;33.50;;;;;;5014056;28;20084;-71
2023/03/26 13:05:35;;;;;;;1.92;0.90;;;31.60;33.50;;;;;;5022093;28;20091;-72
2023/03/26 13:08:42;;;;;;;2.28;1.10;;;31.20;33.70;;;;;;5015386;28;20060;-71
2023/03/26 13:11:34;;;;;;;3.00;1.20;;;32.30;33.90;;;;;;4952403;28;20038;-73
2023/03/26 13:14:43;;;;;;;2.67;1.30;;;32.70;35.00;;;;;;4950480;28;20143;-74
2023/03/26 13:17:35;;;;;;;33.83;30.30;;;32.90;35.80;;;;;;4993473;28;20065;-74
2023/03/26 13:20:52;;;;;;;16.45;13.40;;;31.00;36.40;;;;;;5005610;28;20136;-74
2023/03/26 13:23:49;;;;;;;2.45;1.60;;;31.40;35.60;;;;;;5008360;28;20082;-75
2023/03/26 13:26:38;;;;;;;22.60;20.30;;;30.20;36.30;;;;;;5012009;28;20049;-73
2023/03/26 13:29:27;;;;;;;35.05;31.40;;;31.00;36.60;;;;;;5003783;28;20096;-72
2023/03/26 13:32:11;;;;;;;17.80;15.82;;;32.60;38.20;;;;;;5006759;28;20132;-73
2023/03/26 13:34:44;;;;;;;21.42;18.10;;;32.20;33.80;;;;;;5028743;28;20481;-73
2023/03/26 13:37:41;;;;;;;4.80;2.00;;;30.80;34.70;;;;;;5033492;28;20263;-75
2023/03/26 13:40:30;;;;;;;3.63;1.60;;;31.60;34.80;;;;;;5003114;28;20045;-75
2023/03/26 13:43:00;;;;;;;5.72;2.92;;;31.70;34.60;;;;;;5028748;28;20072;-78